ルクセンブルク の空港の天気 - METARとTAF

ルクセンブルク-フィンデル空港 ( ELLX / LUX ) - ルクセンブルク ルクセンブルク
飛行場実況気象(Metar)
観測時間07/17 11:20 CEST (07/17 09:20 UTC)
風向・風速北 3m/s
視程10km以上
天気現象
少しの雲 雲底高度 910m
気温19℃
湿度60%
気圧1016hPa
METARELLX 170920Z VRB05KT 9999 FEW030 19/11 Q1016 NOSIG
過去の天気等 Google飛行場航空写真 Wunderground天気予報

過去48時間のMETAR

飛行場予報(TAF)
発表時間: 7/17 07:00 CEST (7/17 05:00 UTC)
予報対象時間: 17日8時 CEST ~ 18日14時 CEST
風向・風速北東 3m/s
視程10km以上
なし
18日11時 CEST ~ 18日13時 CEST に徐々に
風向・風速西南西 3m/s
TAF ELLX 170500Z 1706/1812 04006KT CAVOK
BECMG 1809/1811 24005KT